Time;durP1;ratioP1;P1;durP2;ratioP2;P2;SDS_P1;SDS_P2;PMS_P1;PMS_P2;Temp;Humidity;BMP_temperature;BMP_pressure;BME280_temperature;BME280_humidity;BME280_pressure;Samples;Min_cycle;Max_cycle;Signal;HPM_P1;HPM_P2
2022/08/30 00:01:32;;;;;;;;;2.00;2.00;;;;;23.43;39.19;101317.19;5099192;27;46745;-75
2022/08/30 00:03:59;;;;;;;;;3.75;3.00;;;;;23.40;39.44;101309.25;5099950;27;45385;-75
2022/08/30 00:06:25;;;;;;;;;2.75;2.00;;;;;23.39;39.90;101316.56;5101391;27;45349;-75
2022/08/30 00:08:52;;;;;;;;;4.25;3.00;;;;;23.38;39.60;101330.31;5103869;27;45521;-75
2022/08/30 00:11:21;;;;;;;;;3.25;3.00;;;;;23.34;39.53;101317.91;5102554;27;45266;-75
2022/08/30 00:13:49;;;;;;;;;4.50;4.50;;;;;23.37;39.52;101332.19;5103131;27;45476;-75
2022/08/30 00:16:15;;;;;;;;;2.00;1.75;;;;;23.38;39.30;101336.63;5102998;27;46841;-75
2022/08/30 00:18:41;;;;;;;;;3.00;2.50;;;;;23.33;39.42;101332.53;5103435;27;45404;-75
2022/08/30 00:21:07;;;;;;;;;3.50;3.50;;;;;23.24;39.41;101318.63;5102291;27;45408;-75
2022/08/30 00:23:33;;;;;;;;;5.00;5.00;;;;;23.22;39.23;101314.28;5103079;27;45499;-75
2022/08/30 00:25:59;;;;;;;;;3.00;3.00;;;;;23.22;39.30;101320.59;5102969;27;46226;-75
2022/08/30 00:28:24;;;;;;;;;3.00;3.00;;;;;23.19;39.33;101315.38;5103251;27;45435;-75
2022/08/30 00:30:50;;;;;;;;;4.00;2.00;;;;;23.21;39.48;101324.31;5090631;27;45390;-75
2022/08/30 00:33:16;;;;;;;;;4.25;3.25;;;;;23.17;39.32;101321.94;5103097;27;45257;-75
2022/08/30 00:35:42;;;;;;;;;4.75;4.00;;;;;23.01;39.11;101298.56;5102859;27;45243;-76
2022/08/30 00:38:09;;;;;;;;;3.25;3.25;;;;;22.98;39.43;101314.28;5103324;27;45413;-75
2022/08/30 00:40:36;;;;;;;;;5.00;2.50;;;;;22.92;39.49;101310.13;5102197;27;45254;-75
2022/08/30 00:43:04;;;;;;;;;3.00;2.00;;;;;22.92;39.77;101316.47;5102493;27;45346;-76
2022/08/30 00:45:33;;;;;;;;;4.00;3.00;;;;;22.91;39.67;101313.88;5101685;27;45506;-75
2022/08/30 00:47:59;;;;;;;;;3.50;3.00;;;;;22.87;39.93;101309.63;5097429;27;45730;-78
2022/08/30 00:50:36;;;;;;;;;4.50;3.25;;;;;22.83;39.61;101306.28;5097559;27;45413;-80
2022/08/30 00:53:05;;;;;;;;;3.00;3.00;;;;;22.79;40.12;101298.44;5101360;27;45526;-77
2022/08/30 00:55:32;;;;;;;;;3.00;3.00;;;;;22.80;39.79;101301.06;5102750;27;46335;-79
2022/08/30 00:58:00;;;;;;;;;3.00;3.00;;;;;22.80;40.24;101306.50;5102712;27;45558;-78
2022/08/30 01:00:26;;;;;;;;;2.50;2.50;;;;;22.80;39.88;101311.06;5102259;27;45361;-79
2022/08/30 01:02:51;;;;;;;;;3.75;3.75;;;;;22.78;40.12;101305.75;5102319;27;45328;-80
2022/08/30 01:05:18;;;;;;;;;2.50;2.50;;;;;22.75;39.90;101311.41;5102448;27;51875;-79
2022/08/30 01:07:43;;;;;;;;;3.00;2.00;;;;;22.74;40.04;101312.41;5102209;27;45632;-78
2022/08/30 01:10:11;;;;;;;;;3.75;3.75;;;;;22.76;40.14;101314.03;5101933;27;45552;-78
2022/08/30 01:12:38;;;;;;;;;2.00;2.00;;;;;22.73;40.36;101314.25;5094713;27;45313;-77
2022/08/30 01:15:05;;;;;;;;;4.00;4.00;;;;;22.74;40.16;101310.56;5102629;27;45260;-78
2022/08/30 01:17:30;;;;;;;;;4.00;3.25;;;;;22.74;40.07;101312.41;5101839;27;45344;-78
2022/08/30 01:20:00;;;;;;;;;4.00;4.00;;;;;22.73;40.11;101313.38;5101037;27;45467;-77
2022/08/30 01:22:54;;;;;;;;;2.50;2.50;;;;;22.70;39.96;101324.50;5101367;27;45478;-76
2022/08/30 01:25:24;;;;;;;;;3.75;3.75;;;;;22.67;40.39;101330.16;5102018;27;45300;-79
2022/08/30 01:27:55;;;;;;;;;5.25;3.00;;;;;22.67;40.42;101328.34;5102362;27;45208;-79
2022/08/30 01:30:22;;;;;;;;;3.00;3.00;;;;;22.66;40.92;101333.88;5089486;27;45349;-77
2022/08/30 01:32:51;;;;;;;;;4.25;4.00;;;;;22.65;40.95;101335.72;5101495;27;45302;-79
2022/08/30 01:35:19;;;;;;;;;5.25;2.75;;;;;22.57;40.42;101338.16;5102237;27;46217;-76
2022/08/30 01:37:46;;;;;;;;;4.50;3.75;;;;;22.53;40.53;101333.91;5100543;27;45525;-77
2022/08/30 01:40:13;;;;;;;;;3.00;2.75;;;;;22.49;40.68;101340.56;5101205;27;45284;-77
2022/08/30 01:42:40;;;;;;;;;4.00;3.50;;;;;22.51;40.85;101347.63;5102238;27;45337;-77
2022/08/30 01:45:07;;;;;;;;;5.25;4.75;;;;;22.48;40.85;101342.41;5101735;27;46314;-78
2022/08/30 01:47:32;;;;;;;;;4.00;4.00;;;;;22.52;40.85;101353.94;5096002;27;45573;-77
2022/08/30 01:49:58;;;;;;;;;2.25;2.25;;;;;22.53;41.06;101359.25;5093447;27;45494;-77
2022/08/30 01:52:24;;;;;;;;;3.75;3.50;;;;;22.55;40.61;101356.44;5101059;27;45341;-77
2022/08/30 01:54:50;;;;;;;;;3.25;3.25;;;;;22.59;40.85;101357.97;5101578;27;46406;-77
2022/08/30 01:57:19;;;;;;;;;3.50;3.00;;;;;22.56;40.71;101358.19;5101924;27;45189;-77
2022/08/30 01:59:48;;;;;;;;;3.50;3.00;;;;;22.48;40.54;101347.00;5101032;27;45291;-76
2022/08/30 02:02:16;;;;;;;;;3.75;3.00;;;;;22.39;41.16;101343.94;5100239;27;45479;-77
2022/08/30 02:04:42;;;;;;;;;4.25;3.00;;;;;22.39;40.75;101340.38;5101520;27;46187;-76
2022/08/30 02:07:08;;;;;;;;;4.00;3.00;;;;;22.42;41.00;101340.16;5100195;27;46166;-77
2022/08/30 02:09:33;;;;;;;;;5.25;5.25;;;;;22.38;40.69;101334.03;5101411;27;45243;-76
2022/08/30 02:11:58;;;;;;;;;6.00;4.75;;;;;22.36;40.66;101327.00;5100503;27;45723;-80
2022/08/30 02:14:24;;;;;;;;;3.75;3.75;;;;;22.33;40.89;101332.66;5101339;27;46141;-76
2022/08/30 02:16:50;;;;;;;;;4.75;4.00;;;;;22.31;41.23;101342.78;5101469;27;45368;-78
2022/08/30 02:19:15;;;;;;;;;3.75;3.75;;;;;22.26;41.45;101336.78;5099577;27;45218;-77
2022/08/30 02:21:41;;;;;;;;;4.00;4.00;;;;;22.25;41.56;101337.75;5100633;27;45271;-77
2022/08/30 02:24:06;;;;;;;;;4.25;3.00;;;;;22.27;41.64;101338.50;5094336;27;58881;-78
2022/08/30 02:26:32;;;;;;;;;3.00;3.00;;;;;22.24;41.17;101331.44;5101375;27;45361;-77
2022/08/30 02:28:58;;;;;;;;;4.00;4.00;;;;;22.25;41.51;101344.03;5099272;27;45344;-77
2022/08/30 02:31:24;;;;;;;;;4.75;4.00;;;;;22.22;41.76;101349.72;5095122;27;45511;-78
2022/08/30 02:33:52;;;;;;;;;3.50;3.50;;;;;22.21;41.33;101348.84;5101109;27;45532;-78
2022/08/30 02:36:19;;;;;;;;;5.25;4.25;;;;;22.20;41.13;101346.22;5101043;27;45235;-78
2022/08/30 02:38:45;;;;;;;;;3.25;3.25;;;;;22.07;41.38;101335.38;5101302;27;45362;-77
2022/08/30 02:41:11;;;;;;;;;4.00;4.00;;;;;22.10;41.66;101329.72;5099635;27;45534;-77
2022/08/30 02:43:36;;;;;;;;;3.00;3.00;;;;;22.14;41.88;101335.81;5100395;27;45293;-77
2022/08/30 02:46:01;;;;;;;;;3.00;3.00;;;;;22.12;41.31;101341.34;5099485;27;55764;-76
2022/08/30 02:48:27;;;;;;;;;6.00;4.00;;;;;22.14;42.19;101352.13;5095156;27;45487;-76
2022/08/30 02:50:52;;;;;;;;;6.00;4.75;;;;;22.13;41.77;101350.38;5089829;27;45456;-76
2022/08/30 02:53:19;;;;;;;;;6.75;4.00;;;;;22.13;41.55;101351.22;5100810;27;45336;-76
2022/08/30 02:55:45;;;;;;;;;4.75;3.00;;;;;22.11;41.52;101345.03;5100745;27;45481;-76
2022/08/30 02:58:11;;;;;;;;;5.00;4.00;;;;;22.07;41.96;101345.38;5100948;27;45383;-76
2022/08/30 03:00:39;;;;;;;;;3.00;3.00;;;;;22.07;41.80;101357.13;5100072;27;45424;-76
2022/08/30 03:03:06;;;;;;;;;5.25;5.00;;;;;22.06;42.21;101354.53;5100371;27;45493;-76
2022/08/30 03:05:32;;;;;;;;;4.00;4.00;;;;;22.04;42.97;101360.06;5100625;27;45268;-76
2022/08/30 03:07:58;;;;;;;;;3.00;3.00;;;;;21.98;43.46;101344.19;5086994;27;45535;-78
2022/08/30 03:10:26;;;;;;;;;4.75;4.75;;;;;21.89;45.94;101344.84;5099778;27;45333;-78
2022/08/30 03:12:53;;;;;;;;;3.75;3.75;;;;;21.79;47.41;101353.63;5099565;27;45339;-78
2022/08/30 03:15:19;;;;;;;;;8.75;5.75;;;;;21.70;48.89;101357.00;5100680;27;45325;-78
2022/08/30 03:17:45;;;;;;;;;4.00;4.00;;;;;21.66;49.58;101379.91;5100178;27;45446;-77
2022/08/30 03:20:11;;;;;;;;;4.00;4.00;;;;;21.58;49.40;101387.72;5099037;27;45447;-77
2022/08/30 03:22:36;;;;;;;;;7.00;6.00;;;;;21.55;49.94;101377.06;5099959;27;46258;-76
2022/08/30 03:25:03;;;;;;;;;6.00;4.75;;;;;21.51;50.02;101361.97;5100495;27;45401;-77
2022/08/30 03:27:28;;;;;;;;;5.25;5.25;;;;;21.35;50.49;101338.56;5096289;27;45407;-76
2022/08/30 03:29:54;;;;;;;;;6.75;6.75;;;;;21.30;50.80;101329.84;5087667;27;45426;-77
2022/08/30 03:32:20;;;;;;;;;5.50;5.50;;;;;21.25;51.16;101322.00;5099309;27;45397;-77
2022/08/30 03:34:45;;;;;;;;;7.25;6.25;;;;;21.16;51.08;101322.63;5100510;27;45256;-77
2022/08/30 03:37:11;;;;;;;;;4.50;4.00;;;;;20.99;51.67;101309.34;5100240;27;45440;-77
2022/08/30 03:39:36;;;;;;;;;4.75;4.75;;;;;20.95;51.78;101302.34;5101025;27;45198;-76
2022/08/30 03:42:02;;;;;;;;;6.50;6.50;;;;;20.87;52.05;101294.75;5102348;27;45465;-76
2022/08/30 03:44:27;;;;;;;;;8.00;5.25;;;;;20.70;52.22;101288.59;5103963;27;45247;-76
2022/08/30 03:46:52;;;;;;;;;8.25;6.00;;;;;20.61;52.65;101293.72;5103835;27;45369;-76
2022/08/30 03:49:19;;;;;;;;;6.50;6.50;;;;;20.55;53.25;101289.59;5101881;27;54512;-75
2022/08/30 03:51:44;;;;;;;;;7.00;6.00;;;;;20.53;52.96;101294.22;5101583;27;45364;-76
2022/08/30 03:54:10;;;;;;;;;4.50;4.50;;;;;20.43;54.19;101295.78;5102891;27;45242;-76
2022/08/30 03:56:35;;;;;;;;;5.00;5.00;;;;;20.44;54.68;101306.53;5103717;27;45355;-76
2022/08/30 03:59:01;;;;;;;;;6.50;5.25;;;;;20.39;53.26;101291.56;5101361;27;45308;-76
2022/08/30 04:01:26;;;;;;;;;7.50;5.50;;;;;20.39;53.21;101289.72;5099119;27;46022;-76
2022/08/30 04:03:52;;;;;;;;;10.25;6.00;;;;;20.33;52.67;101276.53;5103026;27;45376;-76
2022/08/30 04:06:17;;;;;;;;;10.75;6.25;;;;;20.26;52.81;101267.06;5103471;27;45325;-75
2022/08/30 04:08:44;;;;;;;;;6.00;6.00;;;;;20.18;52.76;101260.31;5101951;27;45515;-75
2022/08/30 04:11:10;;;;;;;;;7.00;6.00;;;;;20.12;54.01;101255.28;5102612;27;47231;-75
2022/08/30 04:13:35;;;;;;;;;8.00;5.00;;;;;20.12;54.47;101257.13;5095237;27;45420;-75
2022/08/30 04:16:01;;;;;;;;;6.00;5.00;;;;;20.10;54.99;101259.94;5103050;27;45249;-75
2022/08/30 04:18:26;;;;;;;;;5.50;5.25;;;;;20.12;54.51;101271.56;5101490;27;45389;-75
2022/08/30 04:20:52;;;;;;;;;8.25;6.00;;;;;20.13;55.87;101273.31;5102011;27;58541;-75
2022/08/30 04:23:18;;;;;;;;;8.00;6.00;;;;;20.14;56.40;101269.59;5102983;27;45222;-75
2022/08/30 04:25:44;;;;;;;;;6.00;6.00;;;;;20.16;56.31;101275.81;5103308;27;45360;-75
2022/08/30 04:28:10;;;;;;;;;5.00;5.00;;;;;20.18;56.08;101281.16;5103314;27;45515;-75
2022/08/30 04:30:40;;;;;;;;;4.75;4.75;;;;;20.15;56.79;101265.94;5095351;27;45505;-75
2022/08/30 04:33:06;;;;;;;;;6.75;6.75;;;;;20.20;56.53;101273.78;5103023;27;45360;-75
2022/08/30 04:35:31;;;;;;;;;7.00;6.00;;;;;20.20;56.93;101270.19;5103087;27;45323;-75
2022/08/30 04:37:56;;;;;;;;;6.50;6.00;;;;;20.22;56.18;101273.69;5103092;27;45492;-75
2022/08/30 04:40:22;;;;;;;;;6.00;5.00;;;;;20.20;56.67;101275.59;5102048;27;45553;-75
2022/08/30 04:42:47;;;;;;;;;4.75;3.50;;;;;20.18;56.49;101273.00;5094133;27;45534;-75
2022/08/30 04:45:15;;;;;;;;;8.00;5.00;;;;;20.21;57.26;101280.91;5098490;27;45217;-75
2022/08/30 04:47:41;;;;;;;;;8.00;6.50;;;;;20.23;57.49;101278.13;5097299;27;45232;-75
2022/08/30 04:50:10;;;;;;;;;8.50;7.50;;;;;20.21;57.26;101278.22;5100340;27;45336;-75
2022/08/30 04:52:36;;;;;;;;;6.00;6.00;;;;;20.20;57.29;101279.19;5102328;27;45475;-75
2022/08/30 04:55:01;;;;;;;;;8.00;8.00;;;;;20.18;57.81;101281.16;5102790;27;45380;-75
2022/08/30 04:57:28;;;;;;;;;6.50;5.00;;;;;20.20;57.14;101281.91;5091351;27;45244;-75
2022/08/30 04:59:54;;;;;;;;;4.00;4.00;;;;;20.17;57.42;101279.41;5098567;27;46487;-75
2022/08/30 05:02:20;;;;;;;;;6.25;6.25;;;;;20.17;57.15;101282.09;5102625;27;45253;-75
2022/08/30 05:07:31;;;;;;;;;5.00;4.00;;;;;20.15;57.23;101286.75;5102403;27;45425;-75
2022/08/30 05:09:56;;;;;;;;;6.00;5.00;;;;;20.15;57.18;101284.91;5091212;27;45407;-75
2022/08/30 05:12:22;;;;;;;;;7.00;6.00;;;;;20.13;57.36;101285.97;5101050;27;45337;-75
2022/08/30 05:14:48;;;;;;;;;6.25;6.25;;;;;20.10;57.43;101286.19;5102589;27;45563;-75
2022/08/30 05:17:13;;;;;;;;;7.75;5.50;;;;;20.07;57.60;101280.94;5091216;27;45344;-75
2022/08/30 05:19:38;;;;;;;;;5.25;5.25;;;;;20.10;57.14;101288.91;5100054;27;55265;-75
2022/08/30 05:22:04;;;;;;;;;6.25;5.00;;;;;20.10;57.07;101287.03;5100994;27;45635;-75
2022/08/30 05:24:30;;;;;;;;;7.50;5.00;;;;;20.11;57.56;101290.63;5102120;27;45459;-75
2022/08/30 05:26:56;;;;;;;;;7.00;6.00;;;;;20.07;57.86;101289.09;5101813;27;45221;-75
2022/08/30 05:29:22;;;;;;;;;7.50;6.00;;;;;20.05;57.73;101299.16;5096286;27;45358;-75
2022/08/30 05:31:47;;;;;;;;;6.00;5.00;;;;;20.00;57.68;101296.72;5099944;27;45466;-75
2022/08/30 05:34:13;;;;;;;;;4.75;4.75;;;;;20.07;57.80;101311.63;5102237;27;45261;-75
2022/08/30 05:36:39;;;;;;;;;5.00;5.00;;;;;20.07;58.02;101310.75;5102146;27;45382;-75
2022/08/30 05:39:06;;;;;;;;;7.25;6.00;;;;;20.05;57.27;101315.41;5101134;27;45720;-75
2022/08/30 05:41:32;;;;;;;;;4.75;4.75;;;;;20.01;57.46;101317.41;5101373;27;45523;-75
2022/08/30 05:43:59;;;;;;;;;5.50;5.50;;;;;20.01;57.45;101316.56;5101954;27;45531;-75
2022/08/30 05:46:28;;;;;;;;;7.50;5.25;;;;;19.96;57.24;101323.16;5097627;27;45381;-75
2022/08/30 05:48:54;;;;;;;;;5.25;5.25;;;;;19.98;57.71;101321.22;5099951;27;45481;-75
2022/08/30 05:51:22;;;;;;;;;7.75;6.00;;;;;19.97;57.87;101319.47;5101886;27;45192;-75
2022/08/30 05:53:50;;;;;;;;;3.50;3.00;;;;;19.98;58.01;101323.06;5101833;27;45419;-75
2022/08/30 05:56:19;;;;;;;;;7.75;5.75;;;;;19.98;58.40;101325.78;5096932;27;45333;-75
2022/08/30 05:58:45;;;;;;;;;5.75;5.25;;;;;19.98;57.85;101329.34;5099618;27;45295;-75
2022/08/30 06:01:30;;;;;;;;;7.25;7.25;;;;;19.98;56.08;101312.22;5101193;27;45470;-76
2022/08/30 06:03:57;;;;;;;;;5.75;4.00;;;;;19.93;57.46;101311.63;5094755;27;45192;-75
2022/08/30 06:06:23;;;;;;;;;8.00;6.25;;;;;19.94;57.74;101311.50;5101320;27;45365;-75
2022/08/30 06:08:49;;;;;;;;;7.25;5.00;;;;;19.97;57.30;101315.88;5100137;27;45715;-75
2022/08/30 06:11:18;;;;;;;;;7.50;6.25;;;;;19.95;57.51;101312.41;5098382;27;45353;-75
2022/08/30 06:13:44;;;;;;;;;9.50;7.00;;;;;19.94;57.63;101319.66;5101057;27;45395;-75
2022/08/30 06:16:17;;;;;;;;;10.75;8.00;;;;;19.94;57.68;101313.38;5101040;27;45472;-75
2022/08/30 06:18:42;;;;;;;;;8.25;6.00;;;;;19.95;58.02;101310.56;5101340;27;46369;-76
2022/08/30 06:21:13;;;;;;;;;10.50;8.50;;;;;19.96;58.13;101316.84;5100466;27;45439;-76
2022/08/30 06:23:39;;;;;;;;;6.25;6.25;;;;;19.93;58.13;101303.47;5099654;27;45164;-75
2022/08/30 06:26:06;;;;;;;;;7.25;6.00;;;;;19.94;56.51;101305.25;5101034;27;50471;-75
2022/08/30 06:28:31;;;;;;;;;8.00;5.50;;;;;19.93;57.27;101319.75;5100704;27;45371;-75
2022/08/30 06:30:57;;;;;;;;;6.75;6.00;;;;;19.98;57.72;101323.94;5091322;27;45330;-75
2022/08/30 06:33:22;;;;;;;;;6.50;6.50;;;;;20.00;57.45;101323.81;5101403;27;45294;-76
2022/08/30 06:35:48;;;;;;;;;6.75;6.75;;;;;20.02;57.64;101319.19;5099069;27;45781;-74
2022/08/30 06:38:13;;;;;;;;;6.25;6.00;;;;;20.03;57.48;101318.22;5100429;27;45231;-74
2022/08/30 06:40:39;;;;;;;;;5.50;5.50;;;;;20.07;56.41;101319.75;5095743;27;45443;-73
2022/08/30 06:43:04;;;;;;;;;10.75;5.75;;;;;20.06;57.27;101319.84;5099526;27;45325;-73
2022/08/30 06:45:29;;;;;;;;;5.00;4.50;;;;;20.03;57.13;101311.91;5097441;27;45560;-73
2022/08/30 06:47:56;;;;;;;;;8.00;6.75;;;;;19.95;56.66;101301.56;5095593;27;47980;-73
2022/08/30 06:50:24;;;;;;;;;11.00;8.25;;;;;20.05;55.21;101319.00;5099499;27;45337;-73
2022/08/30 06:52:50;;;;;;;;;6.50;6.50;;;;;20.05;55.89;101324.41;5101118;27;45349;-72
2022/08/30 06:55:16;;;;;;;;;8.50;7.00;;;;;19.88;54.43;101300.19;5097650;27;45410;-74
2022/08/30 06:57:42;;;;;;;;;6.00;6.00;;;;;19.87;54.86;101306.59;5097624;27;46032;-74
2022/08/30 07:00:12;;;;;;;;;5.00;5.00;;;;;20.01;55.30;101327.41;5100546;27;45369;-74
2022/08/30 07:02:38;;;;;;;;;5.25;5.25;;;;;19.98;55.23;101314.94;5099194;27;45625;-74
2022/08/30 07:05:05;;;;;;;;;6.50;5.50;;;;;20.05;56.06;101331.69;5090233;27;45450;-73
2022/08/30 07:07:30;;;;;;;;;6.75;6.75;;;;;20.11;55.58;101332.16;5099346;27;46335;-73
2022/08/30 07:09:56;;;;;;;;;8.50;7.50;;;;;19.95;54.19;101307.00;5099065;27;45526;-73
2022/08/30 07:12:21;;;;;;;;;7.50;7.00;;;;;20.05;54.61;101327.13;5097672;27;45514;-73
2022/08/30 07:14:47;;;;;;;;;9.00;7.50;;;;;20.06;54.63;101325.28;5099792;27;45407;-73
2022/08/30 07:19:56;;;;;;;;;8.00;7.25;;;;;20.22;54.73;101346.88;5093071;27;45238;-73
2022/08/30 07:22:21;;;;;;;;;11.75;8.00;;;;;20.09;55.10;101319.66;5095795;27;45358;-75
2022/08/30 07:24:47;;;;;;;;;8.00;6.25;;;;;20.18;55.39;101333.50;5086959;27;46247;-74
2022/08/30 07:27:13;;;;;;;;;5.00;5.00;;;;;20.07;55.04;101310.75;5082955;27;46507;-75
2022/08/30 07:29:39;;;;;;;;;7.00;6.75;;;;;20.07;54.97;101313.47;5091381;27;45276;-75
2022/08/30 07:32:06;;;;;;;;;7.00;7.00;;;;;20.25;54.26;101344.81;5098773;27;45372;-75
2022/08/30 07:34:31;;;;;;;;;9.75;8.75;;;;;20.26;54.84;101343.84;5083918;27;45612;-75
2022/08/30 07:36:57;;;;;;;;;10.75;7.75;;;;;20.18;55.14;101330.78;5091585;27;45530;-75
2022/08/30 07:39:22;;;;;;;;;8.25;6.75;;;;;20.30;54.44;101345.41;5096855;27;45480;-75
2022/08/30 07:41:48;;;;;;;;;12.50;9.25;;;;;20.30;54.76;101347.25;5097124;27;46010;-75
2022/08/30 07:44:13;;;;;;;;;6.25;6.25;;;;;20.16;53.77;101321.00;5099481;27;45494;-75
2022/08/30 07:46:40;;;;;;;;;9.25;8.00;;;;;20.22;54.59;101336.03;5095015;27;45543;-75
2022/08/30 07:49:06;;;;;;;;;11.50;7.25;;;;;20.25;54.73;101335.84;5097924;27;45522;-75
2022/08/30 07:51:32;;;;;;;;;9.00;9.00;;;;;20.27;54.99;101340.16;5097680;27;45376;-75
2022/08/30 07:53:59;;;;;;;;;7.00;7.00;;;;;20.35;55.07;101339.69;5098633;27;45503;-75
2022/08/30 07:56:25;;;;;;;;;7.50;7.50;;;;;20.39;54.31;101351.22;5097217;27;47924;-74
2022/08/30 07:58:51;;;;;;;;;10.00;8.25;;;;;20.30;54.10;101329.13;5095851;27;45460;-75
2022/08/30 08:01:18;;;;;;;;;7.25;7.00;;;;;20.49;54.37;101357.78;5096313;27;46075;-75
2022/08/30 08:03:45;;;;;;;;;9.25;9.00;;;;;20.50;54.07;101359.53;5080861;27;45499;-75
2022/08/30 08:06:12;;;;;;;;;7.50;7.50;;;;;20.51;53.89;101363.97;5096008;27;45581;-75
2022/08/30 08:08:38;;;;;;;;;11.25;7.75;;;;;20.42;54.19;101342.88;5094704;27;45533;-75
2022/08/30 08:11:09;;;;;;;;;9.00;8.50;;;;;20.59;55.49;101364.34;5086677;27;45584;-75
2022/08/30 08:13:36;;;;;;;;;9.00;7.50;;;;;20.60;54.01;101362.50;5094547;27;45543;-75
2022/08/30 08:16:02;;;;;;;;;13.00;10.50;;;;;20.51;54.35;101350.41;5096743;27;46408;-75
2022/08/30 08:18:27;;;;;;;;;7.00;7.00;;;;;20.51;54.08;101347.69;5097190;27;45482;-75
2022/08/30 08:20:53;;;;;;;;;11.50;9.25;;;;;20.59;54.14;101360.78;5097253;27;45399;-75
2022/08/30 08:23:18;;;;;;;;;9.50;7.50;;;;;20.47;53.79;101329.91;5101444;27;45494;-75
2022/08/30 08:25:43;;;;;;;;;10.00;9.00;;;;;20.66;53.26;101362.13;5095644;27;46984;-75
2022/08/30 08:28:09;;;;;;;;;8.50;7.75;;;;;20.69;53.28;101367.38;5099973;27;45614;-75
2022/08/30 08:30:36;;;;;;;;;10.75;10.00;;;;;20.71;53.02;101368.13;5089387;27;45434;-75
2022/08/30 08:33:02;;;;;;;;;0.00;0.00;;;;;20.69;52.33;101370.94;5099732;27;45743;-75
2022/08/30 08:35:28;;;;;;;;;11.25;9.00;;;;;20.67;52.37;101370.19;5100287;27;46629;-75
2022/08/30 08:37:53;;;;;;;;;10.50;9.50;;;;;20.74;52.44;101381.50;5100955;27;45460;-75
2022/08/30 08:40:19;;;;;;;;;7.75;6.50;;;;;20.80;52.69;101393.78;5080796;27;46097;-75
2022/08/30 08:43:09;;;;;;;;;8.25;7.00;;;;;20.81;52.49;101392.81;5095919;27;45776;-75
2022/08/30 08:45:54;;;;;;;;;10.25;9.00;;;;;20.78;53.57;101379.47;5099602;27;47176;-75
2022/08/30 08:48:45;;;;;;;;;6.75;6.50;;;;;20.81;52.05;101379.25;5089361;27;45644;-77
2022/08/30 08:54:05;;;;;;;;;7.50;6.75;;;;;20.84;51.92;101379.06;5095804;27;45566;-78
2022/08/30 08:56:31;;;;;;;;;13.00;10.00;;;;;20.90;53.44;101386.81;5101294;27;46055;-75
2022/08/30 08:58:57;;;;;;;;;8.00;7.25;;;;;20.95;52.42;101386.47;5101020;27;45309;-76
2022/08/30 09:01:26;;;;;;;;;12.50;10.50;;;;;20.99;51.80;101399.75;5095217;27;46051;-75
2022/08/30 09:03:53;;;;;;;;;11.75;9.00;;;;;21.08;52.90;101418.16;5086256;27;45425;-75
2022/08/30 09:06:38;;;;;;;;;11.25;9.50;;;;;21.08;52.64;101410.03;5101097;27;45420;-75
2022/08/30 09:09:03;;;;;;;;;10.00;8.50;;;;;21.15;52.90;101405.06;5098636;27;45755;-75
2022/08/30 09:11:32;;;;;;;;;10.00;9.00;;;;;21.22;52.31;101406.38;5090591;27;45461;-75
2022/08/30 09:13:58;;;;;;;;;10.25;10.25;;;;;21.17;52.66;101389.53;5094482;27;45543;-75
2022/08/30 09:16:58;;;;;;;;;13.25;9.50;;;;;21.32;52.69;101409.34;5101162;27;45344;-75
2022/08/30 09:19:50;;;;;;;;;11.00;10.00;;;;;21.41;52.73;101406.00;5093367;27;45769;-75
2022/08/30 09:22:37;;;;;;;;;12.50;11.25;;;;;21.48;52.96;101405.63;5084962;27;45747;-76
2022/08/30 09:25:22;;;;;;;;;9.00;9.00;;;;;21.49;52.99;101404.66;5099799;27;45415;-79
2022/08/30 09:28:06;;;;;;;;;12.50;11.00;;;;;21.57;53.31;101407.72;5101346;27;45421;-80
2022/08/30 09:30:56;;;;;;;;;15.00;11.50;;;;;21.45;52.06;101385.81;5097018;27;46890;-79
2022/08/30 09:33:21;;;;;;;;;12.75;11.00;;;;;21.46;51.43;101379.41;5099214;27;45527;-73
2022/08/30 09:35:58;;;;;;;;;10.25;9.25;;;;;21.77;51.88;101420.81;5115933;27;46402;-72
2022/08/30 09:38:32;;;;;;;;;14.00;11.25;;;;;21.82;51.97;101418.66;5098581;27;46293;-82
2022/08/30 09:41:01;;;;;;;;;11.00;10.50;;;;;21.68;52.71;101385.25;5099665;27;45337;-82
2022/08/30 09:43:38;;;;;;;;;12.25;10.50;;;;;21.94;51.98;101427.78;5100751;27;45767;-82
2022/08/30 09:46:12;;;;;;;;;9.25;8.75;;;;;21.87;52.23;101407.47;5100119;27;45595;-82
2022/08/30 09:48:54;;;;;;;;;9.25;9.25;;;;;21.81;51.46;101386.13;5099425;27;46212;-82
2022/08/30 09:51:40;;;;;;;;;12.50;11.50;;;;;22.11;51.01;101423.88;5085607;27;46025;-82
2022/08/30 09:54:24;;;;;;;;;11.00;11.00;;;;;22.15;50.84;101420.00;5095297;27;45514;-82
2022/08/30 09:57:19;;;;;;;;;10.25;10.25;;;;;22.20;51.32;101422.34;5092452;27;45636;-82
2022/08/30 10:00:17;;;;;;;;;12.00;11.00;;;;;21.90;51.96;101360.16;5100196;27;45392;-82
2022/08/30 10:03:07;;;;;;;;;7.50;5.00;;;;;22.30;52.07;101426.22;5087183;27;45457;-83
2022/08/30 10:05:56;;;;;;;;;14.00;14.00;;;;;22.00;51.67;101370.28;5090547;27;45633;-82
2022/08/30 10:09:01;;;;;;;;;12.50;11.00;;;;;22.40;51.44;101418.25;5097575;27;45624;-82
2022/08/30 10:11:50;;;;;;;;;9.75;9.25;;;;;22.46;50.87;101427.84;5098114;27;47243;-82
2022/08/30 10:14:30;;;;;;;;;11.25;11.25;;;;;22.26;51.48;101385.72;5095069;27;45419;-82
2022/08/30 10:17:25;;;;;;;;;10.75;10.00;;;;;22.47;51.31;101408.69;5098575;27;45586;-82
2022/08/30 10:20:01;;;;;;;;;14.00;12.00;;;;;22.59;51.92;101415.09;5085684;27;45321;-82
2022/08/30 10:22:38;;;;;;;;;14.25;11.50;;;;;22.24;51.05;101352.34;5098811;27;47704;-81
2022/08/30 10:25:13;;;;;;;;;13.50;12.75;;;;;22.41;51.31;101373.75;5099222;27;45645;-82
2022/08/30 10:27:47;;;;;;;;;13.75;12.75;;;;;22.36;50.25;101365.94;5097083;27;45495;-82
2022/08/30 10:30:31;;;;;;;;;11.50;7.25;;;;;22.78;50.06;101428.22;5098159;27;45500;-82
2022/08/30 10:33:13;;;;;;;;;;;;;;;;;;;;;
2022/08/30 10:35:51;;;;;;;;;9.50;9.50;;;;;22.75;50.04;101404.84;5099599;27;72054;-82
2022/08/30 10:38:38;;;;;;;;;12.25;11.00;;;;;22.61;50.17;101360.56;5094138;27;45364;-82
2022/08/30 10:41:27;;;;;;;;;12.00;12.00;;;;;22.89;50.36;101409.25;5087727;27;45432;-81
2022/08/30 10:43:59;;;;;;;;;12.25;12.00;;;;;22.97;49.97;101413.25;5097467;27;47914;-80
2022/08/30 10:46:46;;;;;;;;;15.25;12.50;;;;;23.00;50.13;101421.19;5098124;27;45222;-76
2022/08/30 10:49:20;;;;;;;;;11.00;10.75;;;;;22.82;50.49;101380.75;5088572;27;45362;-75
2022/08/30 10:51:56;;;;;;;;;12.00;10.25;;;;;23.07;49.65;101411.59;5100500;27;45370;-75
2022/08/30 10:54:44;;;;;;;;;12.50;11.50;;;;;22.98;50.45;101399.53;5099513;27;46541;-75
2022/08/30 10:57:09;;;;;;;;;13.75;12.75;;;;;23.10;50.56;101417.72;5087304;27;45395;-75
2022/08/30 10:59:47;;;;;;;;;12.75;11.25;;;;;23.17;49.46;101429.03;5097681;27;45202;-75
2022/08/30 11:02:28;;;;;;;;;10.50;9.25;;;;;23.20;50.24;101426.03;5089402;27;45392;-75
2022/08/30 11:05:16;;;;;;;;;8.50;8.50;;;;;23.23;50.22;101417.66;5100053;27;46450;-75
2022/08/30 11:08:00;;;;;;;;;11.75;9.50;;;;;23.26;49.82;101420.16;5100067;27;45634;-75
2022/08/30 11:10:47;;;;;;;;;14.25;11.50;;;;;23.24;50.25;101407.66;5100764;27;45492;-75
2022/08/30 11:13:33;;;;;;;;;9.50;8.75;;;;;23.26;50.20;101411.13;5087723;27;45604;-76
2022/08/30 11:16:03;;;;;;;;;10.50;10.00;;;;;23.34;49.80;101419.56;5096819;27;45345;-76
2022/08/30 11:18:36;;;;;;;;;10.25;10.25;;;;;23.32;49.31;101410.63;5100436;27;45239;-75
2022/08/30 11:21:31;;;;;;;;;12.50;10.50;;;;;23.42;49.10;101416.25;5098449;27;45285;-76
2022/08/30 11:24:16;;;;;;;;;9.75;9.75;;;;;23.45;48.88;101414.16;5098788;27;45307;-75
2022/08/30 11:26:44;;;;;;;;;14.25;11.00;;;;;23.48;49.24;101418.53;5099402;27;47109;-75
2022/08/30 11:29:28;;;;;;;;;10.25;10.25;;;;;23.52;50.41;101417.28;5096222;27;45464;-76
2022/08/30 11:31:56;;;;;;;;;11.25;10.75;;;;;23.30;50.75;101378.09;5098118;27;45534;-76
2022/08/30 11:34:43;;;;;;;;;9.75;9.50;;;;;23.59;49.97;101413.13;5098260;27;45364;-75
2022/08/30 11:37:10;;;;;;;;;11.50;10.75;;;;;23.56;49.63;101402.47;5098871;27;46407;-75
2022/08/30 11:39:47;;;;;;;;;11.50;11.50;;;;;23.59;49.12;101404.06;5098543;27;45320;-75
2022/08/30 11:42:37;;;;;;;;;10.00;10.00;;;;;23.67;49.59;101407.94;5095420;27;45284;-75
2022/08/30 11:45:21;;;;;;;;;11.00;10.75;;;;;23.73;49.04;101413.91;5092732;27;45405;-75